createdAt,value
2022-08-04T00:03:22.760Z,98240.13
2022-08-04T00:08:51.105Z,98236.66
2022-08-04T00:14:06.106Z,98247.56
2022-08-04T00:19:30.107Z,98244.09
2022-08-04T00:24:32.390Z,98255.00
2022-08-04T00:29:35.679Z,98252.06
2022-08-04T00:34:38.107Z,98250.22
2022-08-04T00:39:40.830Z,98251.03
2022-08-04T00:45:00.958Z,98244.91
2022-08-04T00:50:10.288Z,98244.91
2022-08-04T00:55:12.079Z,98252.59
2022-08-04T01:00:15.986Z,98243.84
2022-08-04T01:05:36.744Z,98243.28
2022-08-04T01:11:05.457Z,98248.56
2022-08-04T01:16:11.453Z,98248.31
2022-08-04T01:21:33.967Z,98243.78
2022-08-04T01:26:53.808Z,98248.53
2022-08-04T01:32:33.328Z,98242.69
2022-08-04T01:37:59.843Z,98249.06
2022-08-04T01:43:03.654Z,98246.94
2022-08-04T01:48:08.657Z,98241.59
2022-08-04T01:53:11.194Z,98242.38
2022-08-04T01:58:15.051Z,98245.81
2022-08-04T02:03:17.608Z,98239.44
2022-08-04T02:08:34.441Z,98244.94
2022-08-04T02:14:13.203Z,98240.41
2022-08-04T02:19:32.696Z,98232.94
2022-08-04T02:24:54.821Z,98240.09
2022-08-04T02:30:05.152Z,98236.88
2022-08-04T02:35:11.195Z,98232.06
2022-08-04T02:40:13.087Z,98228.81
2022-08-04T02:45:19.893Z,98223.75
2022-08-04T02:50:28.640Z,98229.53
2022-08-04T02:55:33.441Z,98229.50
2022-08-04T03:00:36.498Z,98227.84
2022-08-04T03:06:08.724Z,98231.53
2022-08-04T03:11:56.851Z,98231.50
2022-08-04T03:17:10.619Z,98227.19
2022-08-04T03:23:12.118Z,98230.38
2022-08-04T03:28:36.927Z,98236.69
2022-08-04T03:34:15.681Z,98227.88
2022-08-04T03:39:39.190Z,98234.22
2022-08-04T03:44:52.283Z,98232.31
2022-08-04T03:50:09.524Z,98236.53
2022-08-04T03:55:23.165Z,98249.25
2022-08-04T04:00:40.313Z,98241.53
2022-08-04T04:06:02.324Z,98246.84
2022-08-04T04:11:20.144Z,98245.00
2022-08-04T04:16:42.818Z,98240.47
2022-08-04T04:22:05.825Z,98234.41
2022-08-04T04:27:23.231Z,98246.94
2022-08-04T04:32:25.268Z,98238.47
2022-08-04T04:37:48.724Z,98246.22
2022-08-04T04:43:14.123Z,98254.75
2022-08-04T04:48:39.037Z,98253.47
2022-08-04T04:54:08.924Z,98247.69
2022-08-04T04:59:15.732Z,98261.56
2022-08-04T05:04:34.657Z,98257.66
2022-08-04T05:09:55.092Z,98266.72
2022-08-04T05:15:00.457Z,98259.56
2022-08-04T05:20:20.190Z,98249.78
2022-08-04T05:25:34.952Z,98252.47
2022-08-04T05:30:48.710Z,98250.13
2022-08-04T05:36:20.333Z,98248.81
2022-08-04T05:41:20.041Z,98251.75
2022-08-04T05:46:22.474Z,98250.19
2022-08-04T05:51:25.435Z,98258.44
2022-08-04T05:56:29.348Z,98253.97
2022-08-04T06:01:33.618Z,98259.09
2022-08-04T06:06:56.381Z,98251.97
2022-08-04T06:12:04.193Z,98257.59
2022-08-04T06:17:18.352Z,98255.72
2022-08-04T06:22:35.011Z,98252.28
2022-08-04T06:27:38.281Z,98260.03
2022-08-04T06:32:49.192Z,98265.13
2022-08-04T06:37:56.635Z,98267.25
2022-08-04T06:43:05.293Z,98268.84
2022-08-04T06:48:09.069Z,98265.13
2022-08-04T06:53:11.772Z,98262.97
2022-08-04T06:58:15.447Z,98265.56
2022-08-04T07:03:19.153Z,98260.47
2022-08-04T07:08:22.404Z,98269.47
2022-08-04T07:13:25.890Z,98263.75
2022-08-04T07:18:27.900Z,98255.91
2022-08-04T07:23:30.244Z,98253.41
2022-08-04T07:28:32.250Z,98252.28
2022-08-04T07:33:34.614Z,98251.06
2022-08-04T07:38:37.564Z,98243.72
2022-08-04T07:43:48.995Z,98242.44
2022-08-04T07:48:51.745Z,98244.38
2022-08-04T07:53:56.596Z,98245.56
2022-08-04T07:59:01.079Z,98236.88
2022-08-04T08:04:06.961Z,98237.78
2022-08-04T08:09:21.498Z,98243.44
2022-08-04T08:14:24.146Z,98229.03
2022-08-04T08:19:30.059Z,98232.84
2022-08-04T08:24:36.171Z,98225.19
2022-08-04T08:29:38.625Z,98225.72
2022-08-04T08:34:41.976Z,98216.16
2022-08-04T08:39:56.747Z,98214.75
2022-08-04T08:45:32.306Z,98215.16
2022-08-04T08:51:17.744Z,98216.69
2022-08-04T08:56:49.937Z,98212.59
2022-08-04T09:01:51.957Z,98215.75
2022-08-04T09:06:59.497Z,98214.66
2022-08-04T09:12:15.752Z,98214.75
2022-08-04T09:17:53.197Z,98210.75
2022-08-04T09:23:24.171Z,98217.88
2022-08-04T09:28:52.810Z,98202.50
2022-08-04T09:34:24.748Z,98202.47
2022-08-04T09:39:41.382Z,98202.59
2022-08-04T09:44:57.407Z,98195.25
2022-08-04T09:50:27.692Z,98184.81
2022-08-04T09:55:54.324Z,98186.47
2022-08-04T10:01:08.456Z,98193.88
2022-08-04T10:06:19.531Z,98200.97
2022-08-04T10:11:54.400Z,98188.06
2022-08-04T10:17:34.544Z,98177.94
2022-08-04T10:23:10.713Z,98186.03
2022-08-04T10:28:16.858Z,98179.06
2022-08-04T10:33:53.437Z,98183.97
2022-08-04T10:39:04.034Z,98178.09
2022-08-04T10:44:42.130Z,98174.00
2022-08-04T10:49:54.857Z,98168.41
2022-08-04T10:54:59.707Z,98170.69
2022-08-04T11:00:14.969Z,98154.38
2022-08-04T11:05:43.913Z,98157.06
2022-08-04T11:11:28.293Z,98150.88
2022-08-04T11:16:39.151Z,98146.72
2022-08-04T11:21:46.121Z,98148.00
2022-08-04T11:26:58.176Z,98138.84
2022-08-04T11:32:04.188Z,98142.00
2022-08-04T11:37:13.835Z,98147.41
2022-08-04T11:42:26.032Z,98143.16
2022-08-04T11:47:33.193Z,98142.50
2022-08-04T11:52:38.457Z,98144.56
2022-08-04T11:57:40.822Z,98143.94
2022-08-04T12:03:12.163Z,98140.75
2022-08-04T12:08:30.629Z,98134.25
2022-08-04T12:13:44.887Z,98132.03
2022-08-04T12:19:01.364Z,98134.06
2022-08-04T12:24:23.992Z,98128.31
2022-08-04T12:29:31.873Z,98125.91
2022-08-04T12:34:43.729Z,98129.56
2022-08-04T12:40:29.798Z,98116.59
2022-08-04T12:45:16.324Z,98120.03
2022-08-04T12:50:20.160Z,98125.56
2022-08-04T12:55:27.751Z,98101.22
2022-08-04T13:00:40.826Z,98105.50
2022-08-04T13:05:45.582Z,98096.66
2022-08-04T13:10:52.487Z,98099.25
2022-08-04T13:16:00.747Z,98086.31
2022-08-04T13:21:22.877Z,98088.50
2022-08-04T13:30:25.129Z,98076.13
2022-08-04T13:32:26.312Z,98076.28
2022-08-04T13:37:35.387Z,98071.66
2022-08-04T13:42:39.193Z,98075.78
2022-08-04T13:47:42.885Z,98076.09
2022-08-04T13:52:46.166Z,98074.88
2022-08-04T13:57:53.518Z,98066.22
2022-08-04T14:03:23.141Z,98062.72
2022-08-04T14:08:31.304Z,98064.25
2022-08-04T14:13:41.551Z,98053.06
2022-08-04T14:18:45.610Z,98048.47
2022-08-04T14:23:56.098Z,98051.97
2022-08-04T14:29:26.500Z,98044.16
2022-08-04T14:34:31.161Z,98037.97
2022-08-04T14:40:08.621Z,98041.91
2022-08-04T14:45:08.087Z,98030.38
2022-08-04T14:50:11.287Z,98039.09
2022-08-04T14:55:23.061Z,98037.53
2022-08-04T15:00:27.436Z,98031.38
2022-08-04T15:06:00.373Z,98025.50
2022-08-04T15:10:58.803Z,98027.19
2022-08-04T15:16:06.431Z,98018.94
2022-08-04T15:21:11.486Z,98015.94
2022-08-04T15:26:19.719Z,98015.44
2022-08-04T15:32:06.917Z,98005.00
2022-08-04T15:36:57.227Z,98009.28
2022-08-04T15:42:21.611Z,98010.91
2022-08-04T15:47:24.247Z,98007.31
2022-08-04T15:52:31.938Z,98000.03
2022-08-04T15:58:01.729Z,98004.44
2022-08-04T16:03:04.059Z,98001.59
2022-08-04T16:08:14.640Z,98002.56
2022-08-04T16:13:20.608Z,97995.44
2022-08-04T16:18:31.645Z,97992.47
2022-08-04T16:23:57.991Z,97989.00
2022-08-04T16:29:01.986Z,97997.69
2022-08-04T16:34:32.322Z,97995.16
2022-08-04T16:39:26.185Z,97990.44
2022-08-04T16:44:52.806Z,97992.50
2022-08-04T16:50:02.997Z,97985.19
2022-08-04T16:55:05.566Z,97993.72
2022-08-04T17:00:08.768Z,97977.75
2022-08-04T17:05:38.549Z,97981.72
2022-08-04T17:10:45.005Z,97988.66
2022-08-04T17:15:52.402Z,97979.16
2022-08-04T17:21:01.862Z,97984.22
2022-08-04T17:26:14.152Z,97977.09
2022-08-04T17:31:16.648Z,97985.91
2022-08-04T17:36:24.175Z,97982.41
2022-08-04T17:46:53.813Z,97990.44
2022-08-04T17:52:06.910Z,97983.13
2022-08-04T17:57:22.161Z,97983.91
2022-08-04T18:02:33.068Z,97993.78
2022-08-04T18:08:39.303Z,97998.81
2022-08-04T18:13:13.953Z,97993.84
2022-08-04T18:18:23.608Z,97989.84
2022-08-04T18:23:32.039Z,97990.41
2022-08-04T18:28:34.962Z,98000.06
2022-08-04T18:33:39.642Z,97998.75
2022-08-04T18:38:55.810Z,98000.88
2022-08-04T18:44:01.241Z,98006.28
2022-08-04T18:49:05.664Z,98007.66
2022-08-04T18:54:08.366Z,98016.19
2022-08-04T18:59:11.009Z,98016.91
2022-08-04T19:04:33.654Z,98017.41
2022-08-04T19:09:52.114Z,98024.06
2022-08-04T19:15:08.954Z,98022.69
2022-08-04T19:26:01.635Z,98029.50
2022-08-04T19:31:00.116Z,98027.03
2022-08-04T19:36:02.125Z,98031.78
2022-08-04T19:41:14.227Z,98020.38
2022-08-04T19:46:17.640Z,98026.91
2022-08-04T19:51:23.212Z,98020.03
2022-08-04T19:56:29.850Z,98023.88
2022-08-04T20:01:45.609Z,98026.91
2022-08-04T20:06:50.018Z,98031.28
2022-08-04T20:11:51.952Z,98027.00
2022-08-04T20:16:55.241Z,98031.56
2022-08-04T20:21:57.086Z,98025.72
2022-08-04T20:26:59.023Z,98031.66
2022-08-04T20:32:05.489Z,98026.88
2022-08-04T20:37:10.821Z,98029.66
2022-08-04T20:42:14.994Z,98021.69
2022-08-04T20:47:16.780Z,98024.47
2022-08-04T20:52:20.797Z,98027.50
2022-08-04T20:57:48.087Z,98024.91
2022-08-04T21:02:47.105Z,98024.19
2022-08-04T21:07:50.475Z,98018.88
2022-08-04T21:12:52.819Z,98020.06
2022-08-04T21:17:59.415Z,98023.88
2022-08-04T21:23:07.342Z,98033.56
2022-08-04T21:28:09.367Z,98023.22
2022-08-04T21:33:11.134Z,98024.38
2022-08-04T21:38:17.673Z,98023.66
2022-08-04T21:43:20.874Z,98019.75
2022-08-04T21:48:27.733Z,98018.53
2022-08-04T21:53:29.789Z,98020.97
2022-08-04T21:58:32.612Z,98017.28
2022-08-04T22:03:39.583Z,98016.22
2022-08-04T22:08:57.313Z,98012.84
2022-08-04T22:14:10.897Z,98010.72
2022-08-04T22:19:13.807Z,98010.50
2022-08-04T22:24:15.595Z,98014.84
2022-08-04T22:29:17.613Z,98006.09
2022-08-04T22:34:20.057Z,98007.75
2022-08-04T22:39:27.631Z,97996.31
2022-08-04T22:44:29.783Z,98000.94
2022-08-04T22:49:37.346Z,97995.94
2022-08-04T22:54:39.750Z,98004.00
2022-08-04T22:59:43.379Z,98003.78
2022-08-04T23:04:45.374Z,98000.66
2022-08-04T23:09:53.522Z,97996.72
2022-08-04T23:14:58.227Z,97992.25
2022-08-04T23:20:00.459Z,97994.97
2022-08-04T23:25:02.282Z,97991.78
2022-08-04T23:30:07.063Z,97987.53
2022-08-04T23:35:09.775Z,97984.84
2022-08-04T23:40:30.214Z,97985.09
2022-08-04T23:46:05.055Z,97982.38
2022-08-04T23:51:02.980Z,97978.06
2022-08-04T23:56:10.060Z,97977.50
